Time;durP1;ratioP1;P1;durP2;ratioP2;P2;SDS_P1;SDS_P2;PMS_P1;PMS_P2;Temp;Humidity;BMP_temperature;BMP_pressure;BME280_temperature;BME280_humidity;BME280_pressure;Samples;Min_cycle;Max_cycle;Signal;HPM_P1;HPM_P2
2021/06/03 00:02:01;;;;;;;6.50;5.63;;;19.30;51.20;;;;;;6116014;23;20154;-80
2021/06/03 00:04:28;;;;;;;8.00;5.72;;;19.40;51.30;;;;;;6165301;23;20178;-80
2021/06/03 00:06:56;;;;;;;7.22;5.65;;;19.40;51.30;;;;;;6164906;23;20470;-81
2021/06/03 00:09:21;;;;;;;6.35;5.47;;;19.40;51.30;;;;;;6164894;23;20154;-80
2021/06/03 00:11:47;;;;;;;6.40;5.35;;;19.40;51.30;;;;;;6216899;23;20135;-80
2021/06/03 00:14:13;;;;;;;6.60;5.32;;;19.30;51.30;;;;;;6217113;23;20165;-80
2021/06/03 00:16:38;;;;;;;7.80;5.90;;;19.40;51.30;;;;;;6217343;23;20134;-80
2021/06/03 00:19:06;;;;;;;6.80;5.70;;;19.40;51.30;;;;;;6190154;23;20150;-80
2021/06/03 00:21:32;;;;;;;6.85;5.70;;;19.40;51.30;;;;;;6216719;23;20153;-80
2021/06/03 00:23:59;;;;;;;8.07;5.47;;;19.40;51.30;;;;;;6190505;23;20130;-80
2021/06/03 00:26:26;;;;;;;6.93;5.93;;;19.30;51.30;;;;;;6163922;23;20150;-80
2021/06/03 00:28:51;;;;;;;6.28;5.18;;;19.40;51.40;;;;;;6139977;23;20214;-81
2021/06/03 00:31:18;;;;;;;6.18;5.47;;;19.40;51.40;;;;;;6216790;23;20482;-80
2021/06/03 00:33:45;;;;;;;7.65;5.95;;;19.30;51.40;;;;;;6164828;23;20649;-83
2021/06/03 00:36:13;;;;;;;8.55;6.00;;;19.30;51.40;;;;;;6190462;23;20142;-80
2021/06/03 00:38:40;;;;;;;7.07;5.88;;;19.40;51.40;;;;;;6140455;23;20613;-80
2021/06/03 00:41:08;;;;;;;6.97;5.53;;;19.30;51.40;;;;;;6164099;23;20193;-80
2021/06/03 00:43:35;;;;;;;6.53;5.38;;;19.30;51.40;;;;;;6164469;23;20240;-80
2021/06/03 00:46:03;;;;;;;7.07;5.45;;;19.30;51.40;;;;;;6164550;23;20529;-81
2021/06/03 00:48:28;;;;;;;6.55;5.50;;;19.30;51.40;;;;;;6164455;23;20146;-80
2021/06/03 00:50:55;;;;;;;7.00;5.38;;;19.30;51.40;;;;;;6165362;23;20157;-80
2021/06/03 00:53:21;;;;;;;6.55;5.22;;;19.30;51.40;;;;;;6216728;23;20142;-80
2021/06/03 00:55:49;;;;;;;6.78;5.82;;;19.30;51.40;;;;;;6216749;23;20142;-81
2021/06/03 00:58:15;;;;;;;7.78;5.93;;;19.30;51.40;;;;;;6192154;23;20277;-81
2021/06/03 01:00:40;;;;;;;6.78;5.53;;;19.30;51.40;;;;;;6192284;23;20169;-80
2021/06/03 01:03:07;;;;;;;6.70;5.78;;;19.30;51.40;;;;;;6191999;23;20218;-81
2021/06/03 01:05:44;;;;;;;6.60;5.68;;;19.30;51.40;;;;;;6191750;23;20131;-80
2021/06/03 01:08:13;;;;;;;7.90;5.88;;;19.30;51.40;;;;;;6191782;23;20576;-80
2021/06/03 01:10:56;;;;;;;7.28;6.03;;;19.30;51.40;;;;;;6192630;23;20474;-80
2021/06/03 01:13:34;;;;;;;8.40;5.72;;;19.30;51.40;;;;;;6191962;23;20138;-81
2021/06/03 01:16:02;;;;;;;9.60;5.70;;;19.30;51.40;;;;;;6167136;23;20146;-80
2021/06/03 01:18:29;;;;;;;7.38;5.95;;;19.30;51.50;;;;;;6218339;23;20640;-80
2021/06/03 01:20:57;;;;;;;8.07;5.82;;;19.30;51.50;;;;;;6217734;23;20493;-80
2021/06/03 01:23:28;;;;;;;7.15;5.55;;;19.30;51.50;;;;;;6167436;23;20550;-81
2021/06/03 01:25:54;;;;;;;7.25;5.68;;;19.30;51.50;;;;;;6192832;23;20138;-80
2021/06/03 01:28:20;;;;;;;6.50;5.68;;;19.30;51.50;;;;;;6191576;23;20213;-80
2021/06/03 01:30:49;;;;;;;7.15;5.85;;;19.30;51.50;;;;;;6218381;23;20585;-80
2021/06/03 01:33:18;;;;;;;6.88;5.88;;;19.30;51.40;;;;;;6191661;23;20538;-80
2021/06/03 01:35:46;;;;;;;7.05;6.10;;;19.30;51.50;;;;;;6218179;23;20135;-80
2021/06/03 01:38:13;;;;;;;6.63;5.32;;;19.30;51.50;;;;;;6218164;23;20161;-80
2021/06/03 01:40:40;;;;;;;7.82;6.50;;;19.30;51.50;;;;;;6217804;23;20176;-80
2021/06/03 01:43:08;;;;;;;7.03;5.82;;;19.20;51.50;;;;;;6191625;23;20130;-80
2021/06/03 01:45:36;;;;;;;7.85;5.95;;;19.30;51.60;;;;;;6141584;23;20154;-80
2021/06/03 01:48:05;;;;;;;6.25;5.65;;;19.30;51.60;;;;;;6141147;23;20150;-80
2021/06/03 01:50:32;;;;;;;6.60;5.75;;;19.30;51.60;;;;;;6117270;23;20165;-80
2021/06/03 01:53:00;;;;;;;6.57;5.88;;;19.30;51.50;;;;;;6141343;23;20157;-80
2021/06/03 01:55:27;;;;;;;7.18;5.80;;;19.30;51.60;;;;;;6117069;23;20593;-80
2021/06/03 01:57:56;;;;;;;6.70;5.72;;;19.30;51.50;;;;;;6141134;23;20229;-80
2021/06/03 02:00:22;;;;;;;8.63;5.82;;;19.30;51.60;;;;;;6141954;23;20216;-80
2021/06/03 02:02:49;;;;;;;7.15;6.00;;;19.30;51.60;;;;;;6191203;23;20213;-81
2021/06/03 02:05:17;;;;;;;7.00;6.15;;;19.30;51.60;;;;;;6141201;23;20237;-81
2021/06/03 02:07:44;;;;;;;7.05;6.05;;;19.30;51.60;;;;;;6140789;23;20150;-81
2021/06/03 02:10:12;;;;;;;7.95;5.95;;;19.20;51.60;;;;;;6116977;23;20154;-80
2021/06/03 02:12:43;;;;;;;10.25;5.95;;;19.20;51.60;;;;;;6117237;23;20529;-81
2021/06/03 02:15:10;;;;;;;9.50;5.82;;;19.20;51.70;;;;;;6143039;23;20200;-81
2021/06/03 02:17:39;;;;;;;6.70;5.43;;;19.20;51.70;;;;;;6140467;23;20154;-80
2021/06/03 02:20:10;;;;;;;7.53;6.28;;;19.20;51.70;;;;;;6142337;23;20190;-80
2021/06/03 02:22:37;;;;;;;7.00;5.85;;;19.20;51.70;;;;;;6191077;23;20131;-81
2021/06/03 02:25:05;;;;;;;7.40;6.22;;;19.20;51.70;;;;;;6166172;23;20149;-80
2021/06/03 02:27:30;;;;;;;6.75;6.03;;;19.20;51.70;;;;;;6217543;23;20197;-80
2021/06/03 02:29:56;;;;;;;7.95;6.10;;;19.20;51.70;;;;;;6191194;23;20208;-80
2021/06/03 02:32:22;;;;;;;6.82;5.63;;;19.20;51.70;;;;;;6191359;23;20205;-80
2021/06/03 02:34:48;;;;;;;6.50;5.47;;;19.20;51.70;;;;;;6191184;23;20578;-80
2021/06/03 02:37:15;;;;;;;7.47;6.03;;;19.20;51.70;;;;;;6191077;23;20134;-80
2021/06/03 02:39:42;;;;;;;6.95;6.07;;;19.20;51.70;;;;;;6190964;23;20177;-80
2021/06/03 02:42:08;;;;;;;9.60;5.85;;;19.10;51.70;;;;;;6217938;23;20563;-80
2021/06/03 02:44:37;;;;;;;6.75;5.80;;;19.20;51.80;;;;;;6217768;23;21007;-81
2021/06/03 02:47:04;;;;;;;8.60;5.93;;;19.20;51.80;;;;;;6218085;23;20138;-80
2021/06/03 02:49:31;;;;;;;7.25;5.85;;;19.20;51.70;;;;;;6217990;23;20218;-80
2021/06/03 02:52:01;;;;;;;7.90;5.78;;;19.20;51.80;;;;;;6166313;23;20146;-80
2021/06/03 02:54:28;;;;;;;6.93;5.90;;;19.20;51.70;;;;;;6217760;23;20153;-80
2021/06/03 02:56:54;;;;;;;7.43;5.90;;;19.20;52.50;;;;;;6191566;23;20161;-80
2021/06/03 02:59:21;;;;;;;7.95;6.10;;;19.20;51.80;;;;;;6217353;23;20131;-80
2021/06/03 03:01:46;;;;;;;7.53;5.88;;;19.20;51.90;;;;;;6217989;23;20141;-80
2021/06/03 03:04:12;;;;;;;6.63;5.63;;;19.10;51.90;;;;;;6191409;23;20130;-80
2021/06/03 03:06:38;;;;;;;7.20;5.80;;;19.20;51.80;;;;;;6166463;23;20193;-80
2021/06/03 03:09:06;;;;;;;6.78;5.78;;;19.10;51.80;;;;;;6218063;23;20130;-80
2021/06/03 03:11:34;;;;;;;7.05;5.70;;;19.20;51.90;;;;;;6165503;23;20161;-80
2021/06/03 03:14:02;;;;;;;8.27;6.18;;;19.20;51.90;;;;;;6165912;23;20154;-79
2021/06/03 03:16:29;;;;;;;7.18;5.60;;;19.10;51.90;;;;;;6116269;23;20528;-80
2021/06/03 03:18:57;;;;;;;7.10;5.80;;;19.20;51.90;;;;;;6140076;23;20604;-80
2021/06/03 03:21:24;;;;;;;7.47;5.90;;;19.20;51.80;;;;;;6165201;23;20189;-80
2021/06/03 03:23:51;;;;;;;6.82;6.13;;;19.20;51.80;;;;;;6165119;23;20161;-80
2021/06/03 03:26:17;;;;;;;8.45;6.10;;;19.20;52.50;;;;;;6165354;23;20161;-80
2021/06/03 03:28:42;;;;;;;6.32;5.45;;;19.20;51.80;;;;;;6190589;23;20190;-80
2021/06/03 03:31:08;;;;;;;7.38;6.07;;;19.20;51.80;;;;;;6217284;23;20146;-81
2021/06/03 03:33:34;;;;;;;7.10;6.13;;;19.20;51.70;;;;;;6217471;23;20157;-80
2021/06/03 03:36:01;;;;;;;8.02;6.32;;;19.20;51.70;;;;;;6217443;23;20158;-80
2021/06/03 03:38:28;;;;;;;7.35;5.75;;;19.20;51.70;;;;;;6140310;23;20154;-80
2021/06/03 03:40:55;;;;;;;6.63;5.93;;;19.20;51.70;;;;;;6116022;23;20194;-80
2021/06/03 03:43:21;;;;;;;7.03;5.75;;;19.20;51.70;;;;;;6091735;23;20177;-81
2021/06/03 03:45:48;;;;;;;7.22;5.85;;;19.20;51.70;;;;;;6190810;23;20138;-80
2021/06/03 03:48:16;;;;;;;6.60;5.88;;;19.20;51.70;;;;;;6116253;23;20617;-80
2021/06/03 03:50:51;;;;;;;7.03;5.75;;;19.20;51.70;;;;;;5145284;27;20571;-81
2021/06/03 03:53:18;;;;;;;8.55;5.70;;;19.20;51.60;;;;;;5093263;28;20184;-81
2021/06/03 03:55:46;;;;;;;8.35;6.30;;;19.30;51.60;;;;;;5076500;28;20184;-81
2021/06/03 03:58:13;;;;;;;6.57;5.80;;;19.30;51.60;;;;;;5059019;28;20176;-82
2021/06/03 04:00:40;;;;;;;6.97;6.20;;;19.30;51.50;;;;;;5093226;28;20184;-81
2021/06/03 04:03:09;;;;;;;7.00;5.88;;;19.30;51.70;;;;;;5092675;28;20188;-81
2021/06/03 04:05:36;;;;;;;6.45;5.78;;;19.30;51.50;;;;;;5093000;28;20239;-81
2021/06/03 04:08:03;;;;;;;6.97;6.03;;;19.30;51.40;;;;;;5092635;28;20176;-81
2021/06/03 04:10:30;;;;;;;6.57;5.45;;;19.40;51.40;;;;;;5092301;28;20216;-81
2021/06/03 04:12:57;;;;;;;6.20;5.38;;;19.40;51.40;;;;;;5092306;28;20263;-81
2021/06/03 04:15:23;;;;;;;6.90;5.90;;;19.40;51.30;;;;;;5092476;28;20176;-81
2021/06/03 04:17:50;;;;;;;6.38;5.65;;;19.40;51.30;;;;;;5111705;28;20213;-81
2021/06/03 04:20:20;;;;;;;7.35;5.82;;;19.40;51.30;;;;;;5075652;28;20589;-81
2021/06/03 04:22:47;;;;;;;6.85;5.60;;;19.40;51.30;;;;;;5092655;28;20631;-81
2021/06/03 04:25:14;;;;;;;6.38;5.53;;;19.40;51.20;;;;;;5111529;28;20292;-81
2021/06/03 04:27:40;;;;;;;5.80;5.20;;;19.40;51.20;;;;;;5110509;28;20607;-81
2021/06/03 04:30:08;;;;;;;6.57;5.57;;;19.50;51.20;;;;;;5109835;28;20314;-81
2021/06/03 04:32:34;;;;;;;6.40;5.70;;;19.50;51.20;;;;;;5111481;28;20165;-81
2021/06/03 04:35:00;;;;;;;6.57;5.60;;;19.40;51.20;;;;;;5110105;28;20585;-82
2021/06/03 04:37:27;;;;;;;6.88;5.35;;;19.50;51.20;;;;;;5111186;28;20239;-82
2021/06/03 04:39:54;;;;;;;6.57;5.90;;;19.40;51.20;;;;;;5111358;28;20164;-81
2021/06/03 04:42:21;;;;;;;7.97;5.50;;;19.50;51.10;;;;;;5092255;28;20180;-81
2021/06/03 04:44:48;;;;;;;6.28;5.25;;;19.50;51.00;;;;;;5092049;28;20184;-81
2021/06/03 04:47:15;;;;;;;7.00;5.53;;;19.50;51.10;;;;;;5091795;28;20208;-81
2021/06/03 04:49:40;;;;;;;7.55;5.60;;;19.50;51.10;;;;;;5074539;28;20231;-81
2021/06/03 04:54:49;;;;;;;6.03;5.28;;;19.50;51.10;;;;;;5110991;28;20163;-81
2021/06/03 04:57:15;;;;;;;5.78;5.10;;;19.50;51.00;;;;;;5110121;28;20213;-81
2021/06/03 04:59:42;;;;;;;5.35;4.85;;;19.50;51.10;;;;;;5110901;28;20171;-81
2021/06/03 05:02:10;;;;;;;5.93;5.20;;;19.50;50.90;;;;;;5078552;28;20172;-81
2021/06/03 05:04:37;;;;;;;7.13;5.55;;;19.60;50.90;;;;;;5078111;28;20184;-81
2021/06/03 05:07:07;;;;;;;6.22;5.55;;;19.50;50.90;;;;;;5078457;28;20218;-81
2021/06/03 05:09:34;;;;;;;7.00;5.43;;;19.50;50.90;;;;;;5061735;28;20295;-81
2021/06/03 05:12:00;;;;;;;6.10;5.20;;;19.50;51.00;;;;;;5061620;28;20584;-81
2021/06/03 05:14:27;;;;;;;6.10;5.18;;;19.50;51.00;;;;;;5096104;28;20157;-81
2021/06/03 05:16:54;;;;;;;6.13;5.30;;;19.60;51.00;;;;;;5077826;28;20200;-82
2021/06/03 05:19:22;;;;;;;6.03;5.40;;;19.60;51.00;;;;;;5077748;28;20237;-81
2021/06/03 05:21:47;;;;;;;6.10;5.30;;;19.60;51.00;;;;;;5061142;28;20176;-81
2021/06/03 05:24:14;;;;;;;5.82;5.22;;;19.50;50.90;;;;;;5097057;28;20153;-81
2021/06/03 05:26:40;;;;;;;6.57;4.85;;;19.50;51.00;;;;;;5077378;28;20182;-82
2021/06/03 05:29:26;;;;;;;5.55;4.95;;;19.50;51.10;;;;;;5095637;28;20188;-82
2021/06/03 05:31:52;;;;;;;6.65;5.20;;;19.50;51.20;;;;;;5095031;28;20275;-82
2021/06/03 05:34:37;;;;;;;5.55;4.93;;;19.60;51.20;;;;;;5095717;28;20318;-82
2021/06/03 05:37:19;;;;;;;5.43;4.93;;;19.50;51.00;;;;;;5095141;28;20180;-82
2021/06/03 05:39:44;;;;;;;5.65;4.80;;;19.50;51.10;;;;;;5077213;28;20180;-81
2021/06/03 05:42:14;;;;;;;5.50;4.82;;;19.60;51.00;;;;;;5094305;28;20228;-81
2021/06/03 05:44:41;;;;;;;6.63;5.10;;;19.60;50.90;;;;;;5060320;28;20191;-82
2021/06/03 05:47:07;;;;;;;5.43;4.93;;;19.60;51.00;;;;;;5076805;28;20177;-82
2021/06/03 05:49:32;;;;;;;5.72;5.10;;;19.50;51.00;;;;;;5093863;28;20224;-82
2021/06/03 05:52:02;;;;;;;5.57;5.03;;;19.60;51.00;;;;;;5095329;28;20260;-82
2021/06/03 05:54:30;;;;;;;5.47;4.88;;;19.60;51.00;;;;;;5076910;28;20212;-81
2021/06/03 05:56:57;;;;;;;6.25;5.00;;;19.50;51.00;;;;;;5059447;28;20183;-82
2021/06/03 05:59:24;;;;;;;5.75;4.97;;;19.60;51.00;;;;;;5059528;28;20185;-81
2021/06/03 06:01:55;;;;;;;6.45;5.28;;;19.60;51.00;;;;;;5076132;28;20282;-81
2021/06/03 06:07:08;;;;;;;5.60;4.90;;;19.60;50.80;;;;;;5065464;28;20180;-82
2021/06/03 06:09:35;;;;;;;5.72;4.78;;;19.60;50.80;;;;;;5059499;28;20211;-82
2021/06/03 06:12:02;;;;;;;5.47;4.80;;;19.60;50.80;;;;;;5075516;28;20378;-82
2021/06/03 06:14:29;;;;;;;5.75;4.80;;;19.70;50.80;;;;;;5075942;28;20177;-82
2021/06/03 06:16:56;;;;;;;5.20;4.70;;;19.70;50.80;;;;;;5076399;28;20186;-81
2021/06/03 06:19:22;;;;;;;5.55;4.88;;;19.60;50.80;;;;;;5075991;28;20546;-82
2021/06/03 06:21:51;;;;;;;5.43;4.93;;;19.60;50.80;;;;;;5076039;28;20172;-82
2021/06/03 06:24:17;;;;;;;5.72;4.85;;;19.60;50.80;;;;;;5076885;28;20239;-82
2021/06/03 06:26:47;;;;;;;6.25;4.85;;;19.60;50.80;;;;;;5093379;28;20164;-82
2021/06/03 06:29:13;;;;;;;5.40;4.82;;;19.60;50.90;;;;;;5075813;28;20254;-82
2021/06/03 06:31:39;;;;;;;6.18;5.30;;;19.70;50.80;;;;;;5094541;28;20157;-81
2021/06/03 06:34:05;;;;;;;5.28;4.65;;;19.60;50.80;;;;;;5094692;28;20531;-82
2021/06/03 06:36:31;;;;;;;5.20;4.70;;;19.70;50.80;;;;;;5094518;28;20647;-82
2021/06/03 06:38:57;;;;;;;5.70;5.10;;;19.70;50.80;;;;;;5094446;28;20565;-82
2021/06/03 06:41:23;;;;;;;6.05;5.22;;;19.70;50.80;;;;;;5093100;28;20156;-82
2021/06/03 06:43:49;;;;;;;5.30;4.80;;;19.70;50.70;;;;;;5094518;28;20514;-81
2021/06/03 06:46:15;;;;;;;5.25;4.72;;;19.60;50.80;;;;;;5094529;28;20149;-81
2021/06/03 06:48:40;;;;;;;5.57;4.97;;;19.60;50.80;;;;;;5093992;28;20153;-81
2021/06/03 06:51:08;;;;;;;5.38;4.72;;;19.60;50.80;;;;;;5094194;28;20510;-81
2021/06/03 06:53:34;;;;;;;6.82;4.82;;;19.60;50.80;;;;;;5094195;28;20149;-81
2021/06/03 06:55:59;;;;;;;5.40;4.90;;;19.70;50.80;;;;;;5092851;28;20160;-81
2021/06/03 06:58:26;;;;;;;6.45;5.10;;;19.70;50.70;;;;;;5094249;28;20181;-81
2021/06/03 07:00:52;;;;;;;6.00;5.18;;;19.70;50.70;;;;;;5093276;28;20203;-81
2021/06/03 07:03:18;;;;;;;6.10;5.25;;;19.70;50.70;;;;;;5075865;28;20165;-82
2021/06/03 07:05:46;;;;;;;6.70;5.53;;;19.70;50.70;;;;;;5093907;28;20608;-81
2021/06/03 07:08:12;;;;;;;6.07;5.03;;;19.60;50.80;;;;;;5093020;28;20164;-81
2021/06/03 07:10:39;;;;;;;6.85;4.53;;;19.60;50.90;;;;;;5093747;28;20250;-81
2021/06/03 07:13:04;;;;;;;6.88;5.40;;;19.60;50.90;;;;;;5093765;28;20240;-81
2021/06/03 07:15:30;;;;;;;5.53;4.47;;;19.60;50.70;;;;;;5094013;28;20646;-81
2021/06/03 07:17:56;;;;;;;7.80;5.13;;;19.70;50.80;;;;;;5093741;28;20145;-81
2021/06/03 07:20:23;;;;;;;5.20;4.70;;;19.70;50.60;;;;;;5093656;28;20161;-81
2021/06/03 07:22:52;;;;;;;5.97;5.22;;;19.70;50.60;;;;;;5092387;28;20179;-82
2021/06/03 07:25:19;;;;;;;6.22;4.93;;;19.70;50.70;;;;;;5093371;28;20615;-81
2021/06/03 07:27:46;;;;;;;6.07;5.20;;;19.70;50.60;;;;;;5093934;28;20157;-81
2021/06/03 07:30:13;;;;;;;5.55;4.80;;;19.70;50.60;;;;;;5093814;28;20192;-81
2021/06/03 07:32:39;;;;;;;6.05;5.43;;;19.70;50.50;;;;;;5093527;28;20157;-82
2021/06/03 07:35:09;;;;;;;5.93;5.10;;;19.70;50.50;;;;;;5093702;28;20152;-81
2021/06/03 07:37:36;;;;;;;5.93;4.90;;;19.80;50.40;;;;;;5093409;28;20206;-82
2021/06/03 07:40:02;;;;;;;5.45;4.88;;;19.80;50.40;;;;;;5093419;28;20164;-82
2021/06/03 07:42:28;;;;;;;5.15;4.65;;;19.70;50.40;;;;;;5093567;28;20210;-81
2021/06/03 07:44:54;;;;;;;5.30;4.50;;;19.80;50.40;;;;;;5092180;28;20157;-82
2021/06/03 07:47:20;;;;;;;5.65;5.03;;;19.80;50.50;;;;;;5092056;28;20210;-82
2021/06/03 07:49:45;;;;;;;5.45;4.82;;;19.80;50.50;;;;;;5092081;28;20235;-82
2021/06/03 07:52:11;;;;;;;5.93;4.70;;;19.80;50.50;;;;;;5093206;28;20251;-82
2021/06/03 07:54:37;;;;;;;6.60;5.10;;;19.80;50.50;;;;;;5093437;28;20608;-81
2021/06/03 07:57:04;;;;;;;6.22;5.45;;;19.80;50.40;;;;;;5093270;28;20635;-82
2021/06/03 07:59:30;;;;;;;6.68;5.00;;;19.70;50.40;;;;;;5092094;28;20647;-81
2021/06/03 08:01:56;;;;;;;6.40;5.40;;;19.70;50.50;;;;;;5092279;28;20608;-81
2021/06/03 08:04:22;;;;;;;6.00;4.80;;;19.70;50.50;;;;;;5091899;28;20174;-82
2021/06/03 08:06:48;;;;;;;6.03;4.85;;;19.70;50.40;;;;;;5093218;28;20161;-82
2021/06/03 08:09:14;;;;;;;5.78;5.20;;;19.80;50.40;;;;;;5093417;28;20207;-82
2021/06/03 08:11:42;;;;;;;5.40;4.78;;;19.70;50.50;;;;;;5093139;28;20620;-82
2021/06/03 08:14:08;;;;;;;5.75;4.85;;;19.70;50.40;;;;;;5092397;28;20145;-82
2021/06/03 08:16:34;;;;;;;8.45;5.22;;;19.70;50.50;;;;;;5093116;28;20152;-81
2021/06/03 08:19:00;;;;;;;5.15;4.43;;;19.70;50.60;;;;;;5093695;28;20301;-82
2021/06/03 08:21:25;;;;;;;5.55;4.47;;;19.70;50.50;;;;;;5093135;28;20149;-81
2021/06/03 08:23:51;;;;;;;5.30;4.65;;;19.70;50.40;;;;;;5074975;28;20163;-81
2021/06/03 08:26:17;;;;;;;5.40;4.85;;;19.80;50.30;;;;;;5091797;28;20177;-82
2021/06/03 08:28:43;;;;;;;5.57;4.70;;;19.80;50.30;;;;;;5091676;28;20171;-81
2021/06/03 08:31:09;;;;;;;6.28;5.07;;;19.80;50.20;;;;;;5092861;28;20248;-83
2021/06/03 08:33:34;;;;;;;5.03;4.53;;;19.80;50.30;;;;;;5091932;28;20628;-82
2021/06/03 08:36:03;;;;;;;7.75;5.15;;;19.80;50.20;;;;;;5092974;28;20149;-83
2021/06/03 08:38:28;;;;;;;5.55;4.97;;;19.80;50.20;;;;;;5079049;28;20213;-83
2021/06/03 08:40:57;;;;;;;5.35;4.50;;;19.80;50.20;;;;;;5095983;28;20165;-82
2021/06/03 08:43:26;;;;;;;5.80;4.47;;;19.80;50.10;;;;;;5078834;28;20496;-84
2021/06/03 08:45:52;;;;;;;5.30;4.80;;;19.80;50.20;;;;;;5095460;28;20169;-84
2021/06/03 08:48:18;;;;;;;6.18;5.40;;;19.80;50.30;;;;;;5078392;28;20267;-83
2021/06/03 08:50:47;;;;;;;5.20;4.70;;;19.80;50.50;;;;;;5093993;28;20683;-83
2021/06/03 08:53:24;;;;;;;5.60;5.10;;;19.80;50.40;;;;;;5110035;28;20244;-82
2021/06/03 08:58:30;;;;;;;5.07;4.57;;;19.80;50.30;;;;;;5060479;28;20580;-83
2021/06/03 09:00:56;;;;;;;5.78;5.10;;;19.80;50.10;;;;;;5057914;28;20225;-83
2021/06/03 09:03:23;;;;;;;5.38;4.88;;;19.90;50.20;;;;;;5074500;28;20236;-83
2021/06/03 09:05:49;;;;;;;6.05;4.90;;;20.00;50.30;;;;;;5041202;28;20216;-82
2021/06/03 09:08:19;;;;;;;6.28;5.35;;;20.00;50.10;;;;;;5057645;28;20162;-84
2021/06/03 09:10:48;;;;;;;5.88;5.10;;;20.00;50.20;;;;;;5057610;28;20734;-82
2021/06/03 09:13:19;;;;;;;4.85;4.30;;;19.90;50.20;;;;;;5058071;28;20261;-83
2021/06/03 09:15:53;;;;;;;5.63;5.00;;;19.90;50.40;;;;;;5074737;28;20223;-83
2021/06/03 09:18:32;;;;;;;5.20;4.65;;;19.90;50.40;;;;;;5058275;28;20651;-84
2021/06/03 09:21:12;;;;;;;5.90;4.53;;;19.80;50.50;;;;;;5058011;28;20566;-83
2021/06/03 09:23:38;;;;;;;6.10;4.53;;;19.80;50.50;;;;;;5059148;28;20157;-83
2021/06/03 09:26:11;;;;;;;5.20;4.70;;;19.80;50.50;;;;;;5062729;28;20181;-83
2021/06/03 09:28:40;;;;;;;5.70;4.93;;;19.90;50.40;;;;;;5113741;27;20519;-83
2021/06/03 09:31:10;;;;;;;6.05;4.55;;;19.90;50.40;;;;;;5096672;28;20157;-83
2021/06/03 09:33:49;;;;;;;6.07;4.80;;;19.90;50.30;;;;;;5096952;28;20165;-83
2021/06/03 09:36:36;;;;;;;5.50;4.70;;;19.90;50.20;;;;;;5096773;28;20167;-83
2021/06/03 09:39:20;;;;;;;5.88;5.13;;;19.90;50.10;;;;;;5096738;28;20167;-83
2021/06/03 09:41:50;;;;;;;5.68;4.68;;;19.90;50.10;;;;;;5096208;28;20157;-83
2021/06/03 09:44:20;;;;;;;6.05;4.90;;;19.90;50.10;;;;;;5095837;28;20153;-82
2021/06/03 09:46:48;;;;;;;5.95;4.80;;;19.90;50.10;;;;;;5079287;28;20169;-83
2021/06/03 09:49:17;;;;;;;6.25;4.97;;;19.90;50.20;;;;;;5095077;28;20574;-82
2021/06/03 09:51:45;;;;;;;5.50;4.70;;;19.90;50.10;;;;;;5079239;28;20164;-83
2021/06/03 09:54:13;;;;;;;5.47;4.63;;;19.90;50.20;;;;;;5078657;28;20557;-83
2021/06/03 09:56:41;;;;;;;5.00;4.50;;;19.90;50.10;;;;;;5097221;28;20161;-82
2021/06/03 09:59:10;;;;;;;5.25;4.55;;;19.90;50.00;;;;;;5079047;28;20157;-83
2021/06/03 10:01:54;;;;;;;5.63;4.90;;;19.90;50.00;;;;;;5079129;28;20163;-83
2021/06/03 10:04:26;;;;;;;4.97;4.40;;;19.90;50.00;;;;;;5095477;28;20233;-83
2021/06/03 10:07:15;;;;;;;5.43;4.82;;;20.00;50.20;;;;;;5078590;28;20589;-83
2021/06/03 10:09:48;;;;;;;5.28;4.60;;;19.90;50.10;;;;;;5096363;28;20200;-83
2021/06/03 10:12:27;;;;;;;5.13;4.60;;;19.90;50.10;;;;;;5096502;28;20223;-83
2021/06/03 10:14:57;;;;;;;6.75;4.85;;;19.90;49.90;;;;;;5097800;28;20153;-83
2021/06/03 10:17:33;;;;;;;5.85;4.60;;;20.00;49.90;;;;;;5096010;28;20185;-82
2021/06/03 10:20:02;;;;;;;5.13;4.63;;;19.90;50.60;;;;;;5096117;28;20149;-83
2021/06/03 10:22:30;;;;;;;5.38;4.75;;;20.00;50.00;;;;;;5096193;28;20509;-82
2021/06/03 10:25:01;;;;;;;5.32;4.68;;;20.00;49.90;;;;;;5097535;28;20153;-83
2021/06/03 10:27:30;;;;;;;5.38;4.53;;;19.90;49.90;;;;;;5099185;28;20161;-83
2021/06/03 10:29:56;;;;;;;5.00;4.50;;;19.90;50.00;;;;;;5097036;28;20185;-83
2021/06/03 10:32:24;;;;;;;5.70;4.95;;;20.00;49.90;;;;;;5096030;28;20153;-83
2021/06/03 10:34:51;;;;;;;5.20;4.68;;;20.00;49.70;;;;;;5078593;28;20156;-83
2021/06/03 10:37:21;;;;;;;5.28;4.78;;;20.00;49.90;;;;;;5097869;28;20149;-83
2021/06/03 10:39:48;;;;;;;5.93;4.90;;;20.00;50.00;;;;;;5078752;28;20275;-83
2021/06/03 10:42:15;;;;;;;5.20;4.55;;;20.00;49.90;;;;;;5097380;28;20157;-83
2021/06/03 10:44:41;;;;;;;4.97;4.47;;;20.00;49.90;;;;;;5078406;28;20163;-83
2021/06/03 10:47:09;;;;;;;5.80;4.68;;;19.90;49.80;;;;;;5097717;28;20224;-83
2021/06/03 10:49:35;;;;;;;5.32;4.43;;;20.00;49.90;;;;;;5095803;28;20228;-83
2021/06/03 10:52:07;;;;;;;6.90;4.78;;;20.00;49.80;;;;;;5113098;28;20695;-83
2021/06/03 10:54:45;;;;;;;5.40;4.90;;;20.10;49.70;;;;;;5062769;28;20191;-82
2021/06/03 10:57:12;;;;;;;6.03;5.05;;;20.10;49.60;;;;;;5079368;28;20255;-83
2021/06/03 10:59:38;;;;;;;5.13;4.53;;;20.10;49.70;;;;;;5095037;28;20160;-83
2021/06/03 11:02:06;;;;;;;5.35;4.78;;;20.10;49.90;;;;;;5079472;28;20243;-83
2021/06/03 11:04:32;;;;;;;5.13;4.63;;;20.00;50.00;;;;;;5079165;28;20172;-83
2021/06/03 11:06:58;;;;;;;5.47;4.93;;;20.00;49.90;;;;;;5097470;28;20183;-83
2021/06/03 11:09:26;;;;;;;6.97;5.28;;;20.00;49.80;;;;;;5097704;28;20195;-84
2021/06/03 11:12:12;;;;;;;6.07;4.85;;;20.00;49.80;;;;;;5097369;28;20148;-83
2021/06/03 11:14:58;;;;;;;5.97;4.85;;;20.10;49.80;;;;;;5096862;28;20157;-83
2021/06/03 11:17:54;;;;;;;5.70;4.47;;;20.10;49.70;;;;;;5095114;28;20164;-83
2021/06/03 11:20:38;;;;;;;6.30;4.70;;;20.10;49.90;;;;;;5096022;28;20210;-83
2021/06/03 11:23:34;;;;;;;4.93;4.40;;;20.10;49.70;;;;;;5077670;28;20220;-84
2021/06/03 11:26:01;;;;;;;6.10;4.70;;;20.10;49.60;;;;;;5096055;28;20179;-83
2021/06/03 11:28:28;;;;;;;5.40;4.82;;;20.10;49.60;;;;;;5094396;28;20156;-83
2021/06/03 11:30:54;;;;;;;5.55;4.95;;;20.10;49.70;;;;;;5093458;28;20196;-83
2021/06/03 11:33:20;;;;;;;4.93;4.43;;;20.10;49.60;;;;;;5076691;28;20243;-83
2021/06/03 11:35:46;;;;;;;5.35;4.70;;;20.10;49.60;;;;;;5093677;28;20169;-83
2021/06/03 11:38:44;;;;;;;5.00;4.50;;;20.20;49.60;;;;;;5093807;28;20168;-83
2021/06/03 11:41:30;;;;;;;5.40;4.65;;;20.10;49.80;;;;;;5094605;28;20160;-83
2021/06/03 11:44:14;;;;;;;5.30;4.43;;;20.20;49.70;;;;;;5093629;28;20184;-83
2021/06/03 11:46:59;;;;;;;4.60;4.20;;;20.10;49.60;;;;;;5093436;28;20167;-83
2021/06/03 11:49:40;;;;;;;5.15;4.60;;;20.10;49.70;;;;;;5093447;28;20220;-83
2021/06/03 11:52:23;;;;;;;5.25;4.65;;;20.10;49.80;;;;;;5094050;28;20156;-83
2021/06/03 11:54:55;;;;;;;6.32;4.57;;;20.10;49.90;;;;;;5093671;28;20153;-84
2021/06/03 11:57:22;;;;;;;5.10;4.32;;;20.10;50.60;;;;;;5095163;28;20153;-83
2021/06/03 12:00:03;;;;;;;4.78;4.28;;;20.10;49.80;;;;;;5078664;28;20171;-83
2021/06/03 12:02:37;;;;;;;5.43;4.53;;;20.20;49.70;;;;;;5062480;28;20172;-83
2021/06/03 12:05:15;;;;;;;5.22;4.70;;;20.20;49.60;;;;;;5078149;28;20173;-84
2021/06/03 12:07:43;;;;;;;5.32;4.72;;;20.20;49.60;;;;;;5097077;28;20619;-82
2021/06/03 12:10:16;;;;;;;5.75;4.82;;;20.20;49.70;;;;;;5094168;28;20667;-82
2021/06/03 12:12:46;;;;;;;5.38;4.88;;;20.30;49.70;;;;;;5049826;28;20225;-85
2021/06/03 12:15:22;;;;;;;4.78;4.28;;;20.30;49.70;;;;;;5082005;28;20233;-85
2021/06/03 12:17:56;;;;;;;7.32;4.30;;;20.20;49.60;;;;;;5099257;28;20608;-82
2021/06/03 12:20:26;;;;;;;5.20;4.70;;;20.30;49.70;;;;;;5100421;28;20233;-82
2021/06/03 12:22:53;;;;;;;6.32;5.03;;;20.20;49.70;;;;;;5099473;28;20184;-82
2021/06/03 12:25:19;;;;;;;7.53;4.50;;;20.20;49.90;;;;;;5099373;28;20165;-82
2021/06/03 12:27:46;;;;;;;5.72;4.25;;;20.20;49.70;;;;;;5099886;28;20161;-82
2021/06/03 12:30:21;;;;;;;5.20;4.70;;;20.20;49.70;;;;;;5084123;28;20200;-81
2021/06/03 12:33:10;;;;;;;5.03;4.53;;;20.30;49.70;;;;;;5085242;28;20164;-82
2021/06/03 12:35:47;;;;;;;4.97;4.47;;;20.20;49.80;;;;;;5102402;28;20206;-82
2021/06/03 12:38:31;;;;;;;5.90;5.20;;;20.20;49.60;;;;;;5101859;28;20510;-82
2021/06/03 12:41:05;;;;;;;5.25;4.60;;;20.20;49.70;;;;;;5101736;28;20682;-82
2021/06/03 12:43:37;;;;;;;7.47;4.80;;;20.20;49.80;;;;;;5101163;27;20180;-82
2021/06/03 12:46:04;;;;;;;5.65;4.45;;;20.20;49.90;;;;;;5099619;28;20152;-81
2021/06/03 12:48:31;;;;;;;5.63;5.03;;;20.10;49.80;;;;;;5098858;28;20141;-82
2021/06/03 12:50:57;;;;;;;6.15;4.50;;;20.20;49.70;;;;;;5096991;28;20259;-82
2021/06/03 12:53:23;;;;;;;5.15;4.60;;;20.30;49.70;;;;;;5099781;28;20149;-82
2021/06/03 12:55:49;;;;;;;5.15;4.65;;;20.30;49.60;;;;;;5101482;28;20507;-82
2021/06/03 12:58:17;;;;;;;5.47;4.55;;;20.40;49.40;;;;;;5084472;28;20261;-82
2021/06/03 13:00:46;;;;;;;4.53;4.10;;;20.40;49.20;;;;;;5102382;28;20248;-83
2021/06/03 13:03:16;;;;;;;5.95;4.55;;;20.30;49.40;;;;;;5103614;28;20153;-82
2021/06/03 13:05:47;;;;;;;4.60;4.20;;;20.30;49.40;;;;;;5085913;28;20238;-81